Hauptseite
METAR-TAF:

METAR-TAF

Flughäfen :

Flughafen Tawau

Tawau, Malaysia

Breite: 04-16N, Länge: 117-53E, Höhe: 18 m

Beobachtung

Neuester Wetterbericht von vor 27 Minuten, um 17:00 UTC
Windstille
Temperatur 26°C
Luftfeuchtigkeit 94%
Luftdruck 1009 hPa
Sichtweite 10 km oder mehr
Leicht bewölkt in der Höhe von 1600 ft

METAR: WBKW 181700Z 00000KT 9999 FEW016 26/25 Q1009

Zeit: 01:27 (17:27 UTC)

Prognose

Neuester Wetterbericht von vor 6 Stunden und 27 Minuten, um 11:00 UTC
Gültige Prognose vom 18 um 12 UTC bis 19 um 12 UTC
Wind 3 kt aus unterschiedlichen Richtungen
Sichtweite 10 km oder mehr
Leicht bewölkt in der Höhe von 1600 ft

TAF: WBKW 181100Z 1812/1912 VRB03KT 9999 FEW016

Wetterbeobachtungen und Prognosen von mehr als 4000 Flughäfen (METAR und TAF Bericht).

Die verfügbaren Stationen werden durch gelbe und rote Markierungen auf der Karte dargestellt.

Führen Sie die Maus auf sie, um den Namen der Station zu sehen.

Darauf klicken, um die Beobachtung von Wetterbeobachtungen und Prognosen zu sehen.

Um die Karte zu ändern : klicken Sie auf den grünen Tasten mit einem schwarzen Kreuz Zum Vergrößern, auf den grünen Button mit einem Gedankenstrich zu verkleinern, oder auf die grünen Pfeile für benachbarte Karten.


METAR-TAF: